createdAt,value
2022-09-06T00:00:56.013Z,43.45
2022-09-06T00:02:01.942Z,43.37
2022-09-06T00:03:08.944Z,43.35
2022-09-06T00:04:16.402Z,43.25
2022-09-06T00:05:22.455Z,43.34
2022-09-06T00:06:28.556Z,43.23
2022-09-06T00:07:35.212Z,43.29
2022-09-06T00:08:42.285Z,43.44
2022-09-06T00:09:48.153Z,43.39
2022-09-06T00:11:02.843Z,43.45
2022-09-06T00:12:09.326Z,43.53
2022-09-06T00:13:15.095Z,43.66
2022-09-06T00:14:21.416Z,43.54
2022-09-06T00:15:28.313Z,43.52
2022-09-06T00:16:35.624Z,43.55
2022-09-06T00:17:41.377Z,43.65
2022-09-06T00:18:47.234Z,43.56
2022-09-06T00:19:53.037Z,43.46
2022-09-06T00:20:58.994Z,43.62
2022-09-06T00:22:06.107Z,43.61
2022-09-06T00:23:14.845Z,43.57
2022-09-06T00:24:22.498Z,43.67
2022-09-06T00:25:28.700Z,43.90
2022-09-06T00:26:37.534Z,43.87
2022-09-06T00:27:43.000Z,43.78
2022-09-06T00:28:50.072Z,43.64
2022-09-06T00:29:56.209Z,43.57
2022-09-06T00:31:10.268Z,43.56
2022-09-06T00:32:18.425Z,43.50
2022-09-06T00:33:24.203Z,43.63
2022-09-06T00:34:31.240Z,43.54
2022-09-06T00:35:36.826Z,43.70
2022-09-06T00:36:42.967Z,43.54
2022-09-06T00:37:50.416Z,43.48
2022-09-06T00:38:57.469Z,43.57
2022-09-06T00:40:03.256Z,43.52
2022-09-06T00:41:12.704Z,43.44
2022-09-06T00:42:18.499Z,43.46
2022-09-06T00:43:24.725Z,43.41
2022-09-06T00:44:30.941Z,43.38
2022-09-06T00:45:36.690Z,43.31
2022-09-06T00:46:44.398Z,43.11
2022-09-06T00:47:50.302Z,43.02
2022-09-06T00:49:04.544Z,43.15
2022-09-06T00:50:10.903Z,43.01
2022-09-06T00:51:17.122Z,42.91
2022-09-06T00:52:23.089Z,42.95
2022-09-06T00:53:29.045Z,42.80
2022-09-06T00:54:38.050Z,42.88
2022-09-06T00:55:44.936Z,42.95
2022-09-06T00:56:50.903Z,43.06
2022-09-06T00:57:57.205Z,43.01
2022-09-06T00:59:04.700Z,42.87
2022-09-06T01:00:11.084Z,42.82
2022-09-06T01:01:20.407Z,42.71
2022-09-06T01:02:27.184Z,42.67
2022-09-06T01:03:36.802Z,42.56
2022-09-06T01:04:44.580Z,42.43
2022-09-06T01:06:09.287Z,42.39
2022-09-06T01:07:40.941Z,42.24
2022-09-06T01:08:56.578Z,42.21
2022-09-06T01:10:40.651Z,42.16
2022-09-06T01:12:15.917Z,42.16
2022-09-06T01:13:59.882Z,42.09
2022-09-06T01:15:27.996Z,41.86
2022-09-06T01:16:42.437Z,41.63
2022-09-06T01:18:12.791Z,41.53
2022-09-06T01:19:42.251Z,41.46
2022-09-06T01:21:10.363Z,41.33
2022-09-06T01:22:36.766Z,41.26
2022-09-06T01:23:55.952Z,41.18
2022-09-06T01:25:38.794Z,41.09
2022-09-06T01:27:00.736Z,40.99
2022-09-06T01:28:39.347Z,40.88
2022-09-06T01:29:48.724Z,40.73
2022-09-06T01:31:15.032Z,40.59
2022-09-06T01:32:42.897Z,40.34
2022-09-06T01:33:52.598Z,40.13
2022-09-06T01:35:25.050Z,39.88
2022-09-06T01:36:45.761Z,39.65
2022-09-06T01:38:03.384Z,39.42
2022-09-06T01:39:09.637Z,39.31
2022-09-06T01:40:16.498Z,39.25
2022-09-06T01:41:22.593Z,39.20
2022-09-06T01:42:29.368Z,39.20
2022-09-06T01:43:39.434Z,39.18
2022-09-06T01:45:04.426Z,39.10
2022-09-06T01:46:34.616Z,38.97
2022-09-06T01:48:18.056Z,38.88
2022-09-06T01:49:41.944Z,38.77
2022-09-06T01:50:47.934Z,38.58
2022-09-06T01:52:12.443Z,38.40
2022-09-06T01:53:52.382Z,38.21
2022-09-06T01:55:34.069Z,37.96
2022-09-06T01:57:06.330Z,37.73
2022-09-06T01:58:18.311Z,37.53
2022-09-06T01:59:51.030Z,37.40
2022-09-06T02:01:11.739Z,37.23
2022-09-06T02:02:28.265Z,37.10
2022-09-06T02:03:49.060Z,37.00
2022-09-06T02:05:07.048Z,36.88
2022-09-06T02:06:20.928Z,36.75
2022-09-06T02:07:27.780Z,36.69
2022-09-06T02:08:45.591Z,36.59
2022-09-06T02:10:07.807Z,36.46
2022-09-06T02:11:14.941Z,36.34
2022-09-06T02:12:21.287Z,36.24
2022-09-06T02:14:02.919Z,36.15
2022-09-06T02:15:26.044Z,36.00
2022-09-06T02:16:33.691Z,35.88
2022-09-06T02:17:47.134Z,35.78
2022-09-06T02:19:00.821Z,35.69
2022-09-06T02:20:11.643Z,35.59
2022-09-06T02:21:18.148Z,35.50
2022-09-06T02:22:28.312Z,35.43
2022-09-06T02:23:36.641Z,35.36
2022-09-06T02:24:42.489Z,35.29
2022-09-06T02:26:04.127Z,35.21
2022-09-06T02:27:10.293Z,35.14
2022-09-06T02:28:17.242Z,35.08
2022-09-06T02:29:24.775Z,35.02
2022-09-06T02:30:30.867Z,34.94
2022-09-06T02:31:44.312Z,34.87
2022-09-06T02:33:00.763Z,34.78
2022-09-06T02:34:07.022Z,34.72
2022-09-06T02:35:16.855Z,34.65
2022-09-06T02:36:23.382Z,34.58
2022-09-06T02:37:29.292Z,34.51
2022-09-06T02:38:38.536Z,34.44
2022-09-06T02:39:45.373Z,34.36
2022-09-06T02:40:53.543Z,34.28
2022-09-06T02:42:09.540Z,34.19
2022-09-06T02:45:50.545Z,33.91
2022-09-06T02:47:04.757Z,33.78
2022-09-06T02:48:19.706Z,33.71
2022-09-06T02:50:11.985Z,33.63
2022-09-06T02:51:21.520Z,33.54
2022-09-06T02:52:43.199Z,33.49
2022-09-06T02:53:51.984Z,33.46
2022-09-06T02:55:02.644Z,33.42
2022-09-06T02:56:31.191Z,33.38
2022-09-06T02:57:46.460Z,33.31
2022-09-06T02:58:55.410Z,33.25
2022-09-06T03:00:05.524Z,33.21
2022-09-06T03:01:15.403Z,33.16
2022-09-06T03:02:21.575Z,33.11
2022-09-06T03:03:31.091Z,33.06
2022-09-06T03:04:37.946Z,33.02
2022-09-06T03:05:54.277Z,33.01
2022-09-06T03:07:04.498Z,32.98
2022-09-06T03:08:11.053Z,32.95
2022-09-06T03:09:38.836Z,32.92
2022-09-06T03:10:58.430Z,32.88
2022-09-06T03:12:06.940Z,32.82
2022-09-06T03:13:16.898Z,32.80
2022-09-06T03:14:23.129Z,32.79
2022-09-06T03:15:58.827Z,32.78
2022-09-06T03:17:17.799Z,32.76
2022-09-06T03:18:27.827Z,32.74
2022-09-06T03:19:37.196Z,32.73
2022-09-06T03:20:42.587Z,32.71
2022-09-06T03:21:51.648Z,32.72
2022-09-06T03:23:00.742Z,32.74
2022-09-06T03:24:10.796Z,32.75
2022-09-06T03:25:17.708Z,32.76
2022-09-06T03:26:25.996Z,32.74
2022-09-06T03:27:34.958Z,32.72
2022-09-06T03:28:46.301Z,32.70
2022-09-06T03:29:55.829Z,32.69
2022-09-06T03:31:06.963Z,32.66
2022-09-06T03:32:14.074Z,32.60
2022-09-06T03:33:23.054Z,32.55
2022-09-06T03:34:29.380Z,32.50
2022-09-06T03:35:35.534Z,32.44
2022-09-06T03:36:42.597Z,32.40
2022-09-06T03:37:50.712Z,32.35
2022-09-06T03:39:00.261Z,32.30
2022-09-06T03:40:09.141Z,32.26
2022-09-06T03:41:17.477Z,32.23
2022-09-06T03:42:24.328Z,32.22
2022-09-06T03:43:31.122Z,32.21
2022-09-06T03:44:39.891Z,32.21
2022-09-06T03:46:03.899Z,32.24
2022-09-06T03:47:19.484Z,32.21
2022-09-06T03:48:29.760Z,32.17
2022-09-06T03:49:39.637Z,32.13
2022-09-06T03:50:49.606Z,32.11
2022-09-06T03:51:58.374Z,32.08
2022-09-06T03:53:21.592Z,32.07
2022-09-06T03:54:32.944Z,32.06
2022-09-06T03:55:51.150Z,32.06
2022-09-06T03:57:03.956Z,32.05
2022-09-06T03:58:12.256Z,32.04
2022-09-06T03:59:40.328Z,32.03
2022-09-06T04:01:01.348Z,31.99
2022-09-06T04:02:12.582Z,31.97
2022-09-06T04:03:21.392Z,31.96
2022-09-06T04:04:28.952Z,31.95
2022-09-06T04:05:37.610Z,31.95
2022-09-06T04:06:44.332Z,31.94
2022-09-06T04:07:52.858Z,31.93
2022-09-06T04:09:00.978Z,31.90
2022-09-06T04:10:10.682Z,31.87
2022-09-06T04:11:17.636Z,31.84
2022-09-06T04:12:23.996Z,31.81
2022-09-06T04:13:30.705Z,31.78
2022-09-06T04:14:37.375Z,31.76
2022-09-06T04:15:48.409Z,31.72
2022-09-06T04:16:55.120Z,31.69
2022-09-06T04:18:03.902Z,31.65
2022-09-06T04:19:14.735Z,31.62
2022-09-06T04:20:21.478Z,31.59
2022-09-06T04:21:28.308Z,31.58
2022-09-06T04:22:34.661Z,31.56
2022-09-06T04:23:41.353Z,31.56
2022-09-06T04:24:49.187Z,31.57
2022-09-06T04:25:58.349Z,31.55
2022-09-06T04:27:05.745Z,31.51
2022-09-06T04:28:15.512Z,31.48
2022-09-06T04:29:23.598Z,31.44
2022-09-06T04:30:30.936Z,31.41
2022-09-06T04:31:37.709Z,31.38
2022-09-06T04:32:43.328Z,31.37
2022-09-06T04:33:49.976Z,31.35
2022-09-06T04:34:58.631Z,31.31
2022-09-06T04:36:10.127Z,31.27
2022-09-06T04:37:20.406Z,31.23
2022-09-06T04:38:29.758Z,31.19
2022-09-06T04:39:37.121Z,31.16
2022-09-06T04:40:43.193Z,31.12
2022-09-06T04:41:50.783Z,31.10
2022-09-06T04:42:57.356Z,31.08
2022-09-06T04:44:06.328Z,31.07
2022-09-06T04:45:12.885Z,31.07
2022-09-06T04:46:29.388Z,31.06
2022-09-06T04:47:36.879Z,31.04
2022-09-06T04:48:44.921Z,31.02
2022-09-06T04:49:52.563Z,31.00
2022-09-06T04:51:01.471Z,30.96
2022-09-06T04:52:09.003Z,30.91
2022-09-06T04:53:16.854Z,30.85
2022-09-06T04:54:23.813Z,30.83
2022-09-06T04:55:32.053Z,30.80
2022-09-06T04:56:38.600Z,30.78
2022-09-06T04:57:51.129Z,30.75
2022-09-06T04:58:59.132Z,30.71
2022-09-06T05:00:07.263Z,30.68
2022-09-06T05:01:13.889Z,30.66
2022-09-06T05:02:20.431Z,30.63
2022-09-06T05:03:26.686Z,30.61
2022-09-06T05:04:34.794Z,30.59
2022-09-06T05:05:42.667Z,30.57
2022-09-06T05:06:49.879Z,30.56
2022-09-06T05:07:57.181Z,30.54
2022-09-06T05:09:04.206Z,30.52
2022-09-06T05:10:13.517Z,30.48
2022-09-06T05:11:20.570Z,30.43
2022-09-06T05:12:26.680Z,30.39
2022-09-06T05:13:32.645Z,30.36
2022-09-06T05:14:39.720Z,30.33
2022-09-06T05:15:47.711Z,30.30
2022-09-06T05:16:55.362Z,30.28
2022-09-06T05:18:10.070Z,30.28
2022-09-06T05:19:18.998Z,30.28
2022-09-06T05:20:27.090Z,30.27
2022-09-06T05:21:34.295Z,30.27
2022-09-06T05:22:41.191Z,30.28
2022-09-06T05:23:48.007Z,30.31
2022-09-06T05:24:55.210Z,30.33
2022-09-06T05:26:06.891Z,30.35
2022-09-06T05:27:14.146Z,30.35
2022-09-06T05:28:20.407Z,30.35
2022-09-06T05:29:30.500Z,30.34
2022-09-06T05:30:37.894Z,30.32
2022-09-06T05:31:45.066Z,30.30
2022-09-06T05:32:53.258Z,30.29
2022-09-06T05:34:00.651Z,30.27
2022-09-06T05:35:08.055Z,30.25
2022-09-06T05:36:15.307Z,30.22
2022-09-06T05:37:23.873Z,30.19
2022-09-06T05:38:30.509Z,30.17
2022-09-06T05:39:36.595Z,30.14
2022-09-06T05:40:45.679Z,30.12
2022-09-06T05:41:52.106Z,30.10
2022-09-06T05:43:00.811Z,30.07
2022-09-06T05:44:10.893Z,30.06
2022-09-06T05:45:18.359Z,30.05
2022-09-06T05:46:25.588Z,30.03
2022-09-06T05:47:34.992Z,29.99
2022-09-06T05:48:41.897Z,29.97
2022-09-06T05:49:52.575Z,29.96
2022-09-06T05:51:08.114Z,29.96
2022-09-06T05:52:20.851Z,29.94
2022-09-06T05:53:27.645Z,29.92
2022-09-06T05:54:35.587Z,29.91
2022-09-06T05:55:43.174Z,29.90
2022-09-06T05:56:49.978Z,29.90
2022-09-06T05:57:59.789Z,29.91
2022-09-06T05:59:06.431Z,29.92
2022-09-06T06:00:16.850Z,29.93
2022-09-06T06:01:30.818Z,29.93
2022-09-06T06:02:37.760Z,29.93
2022-09-06T06:03:51.547Z,29.94
2022-09-06T06:04:58.967Z,29.92
2022-09-06T06:06:04.877Z,29.91
2022-09-06T06:07:11.165Z,29.91
2022-09-06T06:08:19.822Z,29.94
2022-09-06T06:09:25.652Z,29.95
2022-09-06T06:10:34.329Z,29.97
2022-09-06T06:11:43.901Z,29.98
2022-09-06T06:12:50.653Z,30.00
2022-09-06T06:13:56.928Z,30.01
2022-09-06T06:15:03.516Z,29.98
2022-09-06T06:16:13.182Z,29.96
2022-09-06T06:17:19.356Z,29.94
2022-09-06T06:18:25.829Z,29.93
2022-09-06T06:19:32.181Z,29.90
2022-09-06T06:20:39.067Z,29.87
2022-09-06T06:21:46.027Z,29.85
2022-09-06T06:22:54.973Z,29.84
2022-09-06T06:24:08.246Z,29.84
2022-09-06T06:25:16.922Z,29.82
2022-09-06T06:26:24.025Z,29.82
2022-09-06T06:27:31.277Z,29.82
2022-09-06T06:28:38.156Z,29.79
2022-09-06T06:29:47.036Z,29.77
2022-09-06T06:30:56.072Z,29.75
2022-09-06T06:32:03.406Z,29.72
2022-09-06T06:33:09.978Z,29.69
2022-09-06T06:34:18.255Z,29.68
2022-09-06T06:35:26.100Z,29.66
2022-09-06T06:36:34.895Z,29.64
2022-09-06T06:37:42.909Z,29.63
2022-09-06T06:38:49.208Z,29.62
2022-09-06T06:39:56.388Z,29.61
2022-09-06T06:41:06.872Z,29.59
2022-09-06T06:42:17.499Z,29.54
2022-09-06T06:43:39.223Z,29.49
2022-09-06T06:44:45.459Z,29.45
2022-09-06T06:45:51.864Z,29.41
2022-09-06T06:46:59.377Z,29.39
2022-09-06T06:48:08.190Z,29.36
2022-09-06T06:49:14.439Z,29.35
2022-09-06T06:50:24.542Z,29.34
2022-09-06T06:51:32.541Z,29.32
2022-09-06T06:52:42.319Z,29.30
2022-09-06T06:53:50.281Z,29.27
2022-09-06T06:55:00.125Z,29.25
2022-09-06T06:56:18.845Z,29.24
2022-09-06T06:57:26.142Z,29.22
2022-09-06T06:58:35.706Z,29.22
2022-09-06T06:59:43.794Z,29.21
2022-09-06T07:00:53.354Z,29.18
2022-09-06T07:02:03.249Z,29.15
2022-09-06T07:03:11.195Z,29.14
2022-09-06T07:04:18.861Z,29.13
2022-09-06T07:08:28.850Z,29.05
2022-09-06T07:11:05.780Z,28.96
2022-09-06T07:12:15.964Z,28.92
2022-09-06T07:13:22.962Z,28.89
2022-09-06T07:14:29.776Z,28.86
2022-09-06T07:15:37.398Z,28.84
2022-09-06T07:16:44.533Z,28.78
2022-09-06T07:17:54.091Z,28.74
2022-09-06T07:19:04.251Z,28.72
2022-09-06T07:24:36.387Z,28.51
2022-09-06T07:25:43.620Z,28.49
2022-09-06T07:28:18.978Z,28.45
2022-09-06T07:29:27.478Z,28.45
2022-09-06T07:30:37.953Z,28.42
2022-09-06T07:33:16.306Z,28.35
2022-09-06T07:34:26.559Z,28.29
2022-09-06T07:35:34.041Z,28.22
2022-09-06T07:36:42.579Z,28.15
2022-09-06T07:37:59.284Z,28.06
2022-09-06T07:39:07.834Z,27.98
2022-09-06T07:40:15.411Z,27.91
2022-09-06T07:41:24.210Z,27.87
2022-09-06T07:42:36.293Z,27.82
2022-09-06T07:43:44.877Z,27.74
2022-09-06T07:44:50.919Z,27.67
2022-09-06T07:46:02.751Z,27.61
2022-09-06T07:48:40.797Z,27.46
2022-09-06T07:51:17.286Z,27.32
2022-09-06T07:54:13.224Z,27.24
2022-09-06T07:55:26.737Z,27.17
2022-09-06T07:56:34.263Z,27.11
2022-09-06T07:57:41.432Z,27.06
2022-09-06T07:58:49.287Z,27.02
2022-09-06T07:59:56.492Z,26.98
2022-09-06T08:01:40.497Z,26.94
2022-09-06T08:02:46.742Z,26.87
2022-09-06T08:03:52.590Z,26.83
2022-09-06T08:04:58.835Z,26.80
2022-09-06T08:08:59.061Z,26.69
2022-09-06T08:10:07.011Z,26.64
2022-09-06T08:11:15.687Z,26.59
2022-09-06T08:12:24.717Z,26.56
2022-09-06T08:13:32.521Z,26.55
2022-09-06T08:14:40.289Z,26.53
2022-09-06T08:15:46.515Z,26.53
2022-09-06T08:16:52.462Z,26.55
2022-09-06T08:17:59.369Z,26.57
2022-09-06T08:19:13.442Z,26.59
2022-09-06T08:20:20.517Z,26.60
2022-09-06T08:21:28.628Z,26.61
2022-09-06T08:22:35.820Z,26.62
2022-09-06T08:23:50.946Z,26.61
2022-09-06T08:25:00.636Z,26.59
2022-09-06T08:26:06.625Z,26.57
2022-09-06T08:27:14.093Z,26.56
2022-09-06T08:28:25.549Z,26.54
2022-09-06T08:29:33.786Z,26.52
2022-09-06T08:30:40.823Z,26.53
2022-09-06T08:31:48.681Z,26.53
2022-09-06T08:32:58.811Z,26.51
2022-09-06T08:34:05.195Z,26.49
2022-09-06T08:35:11.733Z,26.46
2022-09-06T08:36:21.096Z,26.42
2022-09-06T08:37:30.029Z,26.38
2022-09-06T08:38:36.769Z,26.40
2022-09-06T08:39:43.782Z,26.42
2022-09-06T08:40:53.462Z,26.43
2022-09-06T08:42:03.488Z,26.42
2022-09-06T08:43:17.819Z,26.41
2022-09-06T08:46:00.495Z,26.37
2022-09-06T08:47:16.994Z,26.40
2022-09-06T08:48:28.656Z,26.42
2022-09-06T08:49:48.405Z,26.44
2022-09-06T08:51:08.007Z,26.44
2022-09-06T08:53:16.219Z,26.44
2022-09-06T08:54:37.936Z,26.43
2022-09-06T08:55:55.000Z,26.42
2022-09-06T08:57:40.412Z,26.46
2022-09-06T08:59:05.290Z,26.49
2022-09-06T09:00:13.025Z,26.50
2022-09-06T09:01:26.329Z,26.51
2022-09-06T09:02:45.662Z,26.51
2022-09-06T09:03:51.644Z,26.50
2022-09-06T09:05:01.560Z,26.48
2022-09-06T09:06:08.130Z,26.47
2022-09-06T09:07:25.747Z,26.47
2022-09-06T09:08:55.400Z,26.47
2022-09-06T09:10:01.425Z,26.46
2022-09-06T09:11:16.265Z,26.45
2022-09-06T09:12:23.466Z,26.42
2022-09-06T09:13:32.449Z,26.39
2022-09-06T09:14:40.085Z,26.36
2022-09-06T09:15:45.741Z,26.33
2022-09-06T09:17:03.993Z,26.31
2022-09-06T09:18:09.634Z,26.27
2022-09-06T09:19:15.843Z,26.23
2022-09-06T09:20:21.978Z,26.19
2022-09-06T09:21:32.171Z,26.16
2022-09-06T09:22:41.105Z,26.13
2022-09-06T09:23:47.194Z,26.10
2022-09-06T09:24:56.228Z,26.08
2022-09-06T09:26:12.269Z,26.04
2022-09-06T09:27:30.856Z,26.03
2022-09-06T09:28:36.977Z,26.01
2022-09-06T09:31:59.165Z,25.97
2022-09-06T09:33:08.526Z,25.95
2022-09-06T09:34:29.351Z,25.95
2022-09-06T09:35:38.968Z,25.93
2022-09-06T09:38:31.136Z,25.90
2022-09-06T09:39:38.436Z,25.87
2022-09-06T09:41:07.357Z,25.84
2022-09-06T09:42:13.026Z,25.81
2022-09-06T09:43:20.506Z,25.79
2022-09-06T09:44:30.415Z,25.77
2022-09-06T09:45:36.477Z,25.74
2022-09-06T09:46:45.258Z,25.72
2022-09-06T09:47:52.714Z,25.69
2022-09-06T09:49:07.264Z,25.66
2022-09-06T09:50:33.827Z,25.62
2022-09-06T09:51:48.536Z,25.58
2022-09-06T09:52:55.602Z,25.55
2022-09-06T09:54:04.453Z,25.53
2022-09-06T09:55:11.039Z,25.51
2022-09-06T09:56:16.782Z,25.49
2022-09-06T09:57:23.262Z,25.47
2022-09-06T09:58:36.028Z,25.47
2022-09-06T09:59:55.514Z,25.46
2022-09-06T10:01:21.896Z,25.44
2022-09-06T10:02:29.544Z,25.42
2022-09-06T10:03:35.777Z,25.40
2022-09-06T10:04:53.953Z,25.40
2022-09-06T10:06:02.621Z,25.39
2022-09-06T10:07:12.770Z,25.39
2022-09-06T10:08:18.589Z,25.37
2022-09-06T10:09:44.643Z,25.35
2022-09-06T10:10:53.683Z,25.33
2022-09-06T10:12:00.029Z,25.29
2022-09-06T10:13:24.769Z,25.28
2022-09-06T10:14:47.462Z,25.26
2022-09-06T10:15:54.109Z,25.24
2022-09-06T10:17:03.271Z,25.21
2022-09-06T10:18:20.467Z,25.20
2022-09-06T10:19:46.874Z,25.17
2022-09-06T10:20:58.175Z,25.14
2022-09-06T10:22:26.529Z,25.12
2022-09-06T10:25:49.965Z,25.04
2022-09-06T10:27:03.897Z,25.02
2022-09-06T10:28:32.406Z,24.99
2022-09-06T10:29:53.848Z,24.95
2022-09-06T10:31:36.815Z,24.92
2022-09-06T10:32:44.253Z,24.88
2022-09-06T10:34:01.451Z,24.85
2022-09-06T10:35:31.796Z,24.83
2022-09-06T10:36:39.720Z,24.81
2022-09-06T10:38:08.752Z,24.79
2022-09-06T10:39:41.270Z,24.76
2022-09-06T10:41:21.787Z,24.74
2022-09-06T10:42:30.646Z,24.70
2022-09-06T10:43:58.793Z,24.68
2022-09-06T10:45:30.332Z,24.66
2022-09-06T10:46:37.979Z,24.63
2022-09-06T10:48:03.660Z,24.61
2022-09-06T10:49:11.666Z,24.57
2022-09-06T10:50:18.226Z,24.54
2022-09-06T10:51:36.979Z,24.52
2022-09-06T10:52:43.041Z,24.50
2022-09-06T10:54:10.485Z,24.50
2022-09-06T10:55:19.400Z,24.51
2022-09-06T10:57:02.156Z,24.52
2022-09-06T10:58:19.216Z,24.51
2022-09-06T10:59:40.670Z,24.50
2022-09-06T11:00:48.019Z,24.48
2022-09-06T11:02:28.035Z,24.46
2022-09-06T11:04:00.042Z,24.42
2022-09-06T11:06:46.535Z,24.30
2022-09-06T11:09:40.362Z,24.21
2022-09-06T11:10:46.714Z,24.16
2022-09-06T11:11:58.095Z,24.12
2022-09-06T11:13:20.022Z,24.09
2022-09-06T11:14:28.425Z,24.04
2022-09-06T11:15:44.679Z,24.00
2022-09-06T11:16:58.663Z,23.96
2022-09-06T11:18:20.753Z,23.95
2022-09-06T11:19:33.102Z,23.97
2022-09-06T11:21:07.175Z,24.01
2022-09-06T11:22:41.546Z,24.06
2022-09-06T11:24:09.453Z,24.10
2022-09-06T11:25:46.116Z,24.15
2022-09-06T11:27:24.527Z,24.19
2022-09-06T11:28:49.108Z,24.26
2022-09-06T11:29:58.919Z,24.31
2022-09-06T11:31:07.430Z,24.37
2022-09-06T11:32:49.166Z,24.42
2022-09-06T11:34:13.307Z,24.46
2022-09-06T11:35:33.088Z,24.49
2022-09-06T11:37:11.029Z,24.53
2022-09-06T11:38:17.883Z,24.53
2022-09-06T11:41:16.666Z,24.54
2022-09-06T11:43:00.678Z,24.54
2022-09-06T11:44:07.684Z,24.53
2022-09-06T11:45:25.578Z,24.52
2022-09-06T11:46:37.361Z,24.52
2022-09-06T11:47:44.942Z,24.50
2022-09-06T11:49:30.416Z,24.49
2022-09-06T11:50:55.757Z,24.45
2022-09-06T11:52:41.711Z,24.41
2022-09-06T11:54:00.943Z,24.37
2022-09-06T11:55:10.704Z,24.34
2022-09-06T11:56:48.392Z,24.31
2022-09-06T11:57:59.072Z,24.27
2022-09-06T11:59:27.874Z,24.22
2022-09-06T12:00:34.925Z,24.15
2022-09-06T12:01:41.930Z,24.10
2022-09-06T12:02:48.184Z,24.05
2022-09-06T12:04:10.265Z,24.01
2022-09-06T12:05:19.896Z,23.96
2022-09-06T12:06:30.747Z,23.93
2022-09-06T12:07:38.781Z,23.89
2022-09-06T12:08:45.924Z,23.87
2022-09-06T12:09:54.735Z,23.84
2022-09-06T12:11:04.755Z,23.82
2022-09-06T12:12:16.207Z,23.78
2022-09-06T12:13:55.255Z,23.73
2022-09-06T12:15:18.598Z,23.67
2022-09-06T12:17:05.688Z,23.62
2022-09-06T12:18:48.766Z,23.56
2022-09-06T12:20:08.936Z,23.51
2022-09-06T12:21:47.193Z,23.46
2022-09-06T12:22:53.048Z,23.41
2022-09-06T12:24:00.308Z,23.38
2022-09-06T12:25:30.130Z,23.35
2022-09-06T12:26:55.661Z,23.32
2022-09-06T12:28:06.184Z,23.30
2022-09-06T12:29:13.658Z,23.28
2022-09-06T12:30:54.292Z,23.27
2022-09-06T12:32:04.566Z,23.24
2022-09-06T12:33:40.046Z,23.22
2022-09-06T12:36:34.147Z,23.16
2022-09-06T12:37:56.410Z,23.14
2022-09-06T12:39:14.179Z,23.12
2022-09-06T12:40:21.630Z,23.12
2022-09-06T12:41:29.044Z,23.12
2022-09-06T12:42:36.887Z,23.12
2022-09-06T12:43:42.730Z,23.12
2022-09-06T12:44:52.716Z,23.12
2022-09-06T12:45:58.997Z,23.14
2022-09-06T12:47:34.202Z,23.16
2022-09-06T12:48:44.844Z,23.19
2022-09-06T12:50:15.375Z,23.22
2022-09-06T12:51:22.278Z,23.25
2022-09-06T12:52:28.179Z,23.28
2022-09-06T12:53:35.279Z,23.31
2022-09-06T12:54:50.674Z,23.32
2022-09-06T12:56:06.284Z,23.34
2022-09-06T12:57:22.444Z,23.36
2022-09-06T12:58:31.362Z,23.38
2022-09-06T12:59:41.754Z,23.40
2022-09-06T13:00:55.224Z,23.42
2022-09-06T13:02:14.906Z,23.44
2022-09-06T13:03:57.662Z,23.48
2022-09-06T13:05:12.420Z,23.51
2022-09-06T13:06:27.257Z,23.52
2022-09-06T13:07:36.005Z,23.53
2022-09-06T13:08:52.621Z,23.55
2022-09-06T13:09:59.102Z,23.57
2022-09-06T13:11:05.401Z,23.58
2022-09-06T13:12:18.911Z,23.60
2022-09-06T13:13:25.721Z,23.61
2022-09-06T13:14:32.447Z,23.62
2022-09-06T13:15:38.829Z,23.63
2022-09-06T13:16:53.437Z,23.63
2022-09-06T13:18:36.511Z,23.62
2022-09-06T13:19:43.408Z,23.60
2022-09-06T13:21:01.403Z,23.58
2022-09-06T13:22:09.102Z,23.57
2022-09-06T13:23:21.030Z,23.56
2022-09-06T13:24:44.574Z,23.57
2022-09-06T13:25:54.294Z,23.58
2022-09-06T13:27:02.100Z,23.60
2022-09-06T13:28:09.170Z,23.64
2022-09-06T13:29:27.418Z,23.67
2022-09-06T13:30:49.044Z,23.70
2022-09-06T13:32:01.082Z,23.70
2022-09-06T13:33:08.626Z,23.72
2022-09-06T13:34:32.375Z,23.73
2022-09-06T13:35:38.974Z,23.74
2022-09-06T13:36:50.445Z,23.74
2022-09-06T13:38:21.952Z,23.73
2022-09-06T13:39:38.754Z,23.73
2022-09-06T13:41:09.249Z,23.74
2022-09-06T13:42:37.372Z,23.76
2022-09-06T13:43:46.777Z,23.77
2022-09-06T13:44:55.972Z,23.77
2022-09-06T13:46:13.821Z,23.76
2022-09-06T13:47:20.210Z,23.76
2022-09-06T13:48:29.842Z,23.76
2022-09-06T13:49:36.718Z,23.78
2022-09-06T13:50:43.825Z,23.80
2022-09-06T13:51:53.257Z,23.83
2022-09-06T13:52:59.536Z,23.86
2022-09-06T13:54:14.675Z,23.89
2022-09-06T13:55:21.839Z,23.94
2022-09-06T13:56:29.963Z,24.00
2022-09-06T13:57:41.933Z,24.06
2022-09-06T13:58:48.221Z,24.13
2022-09-06T13:59:55.960Z,24.26
2022-09-06T14:01:03.222Z,24.44
2022-09-06T14:02:21.409Z,24.65
2022-09-06T14:03:32.121Z,24.90
2022-09-06T14:04:42.751Z,25.12
2022-09-06T14:05:49.602Z,25.35
2022-09-06T14:06:56.156Z,25.54
2022-09-06T14:08:02.354Z,25.73
2022-09-06T14:09:12.019Z,25.93
2022-09-06T14:10:19.736Z,26.12
2022-09-06T14:11:26.566Z,26.30
2022-09-06T14:12:34.030Z,26.52
2022-09-06T14:13:41.341Z,26.74
2022-09-06T14:14:48.880Z,26.94
2022-09-06T14:15:56.461Z,27.13
2022-09-06T14:17:04.050Z,27.28
2022-09-06T14:18:14.371Z,27.37
2022-09-06T14:19:21.866Z,27.49
2022-09-06T14:20:31.336Z,27.64
2022-09-06T14:21:36.940Z,27.82
2022-09-06T14:22:44.163Z,27.97
2022-09-06T14:23:52.878Z,28.14
2022-09-06T14:25:03.303Z,28.31
2022-09-06T14:26:11.182Z,28.53
2022-09-06T14:27:18.166Z,28.74
2022-09-06T14:28:29.357Z,28.94
2022-09-06T14:29:36.718Z,29.12
2022-09-06T14:30:46.104Z,29.35
2022-09-06T14:31:54.011Z,29.52
2022-09-06T14:33:02.594Z,29.62
2022-09-06T14:34:10.088Z,29.73
2022-09-06T14:35:16.528Z,29.91
2022-09-06T14:36:27.036Z,30.10
2022-09-06T14:37:33.152Z,30.27
2022-09-06T14:38:40.992Z,30.38
2022-09-06T14:39:46.925Z,30.43
2022-09-06T14:40:53.245Z,30.46
2022-09-06T14:41:59.336Z,30.48
2022-09-06T14:43:05.530Z,30.56
2022-09-06T14:44:12.275Z,30.72
2022-09-06T14:45:21.287Z,30.88
2022-09-06T14:46:30.523Z,30.95
2022-09-06T14:47:38.151Z,30.97
2022-09-06T14:48:44.439Z,31.06
2022-09-06T14:49:50.404Z,31.23
2022-09-06T14:50:59.402Z,31.40
2022-09-06T14:52:07.076Z,31.49
2022-09-06T14:53:36.979Z,31.52
2022-09-06T14:54:47.643Z,31.52
2022-09-06T14:56:05.412Z,31.49
2022-09-06T14:57:13.778Z,31.48
2022-09-06T14:58:21.650Z,31.46
2022-09-06T14:59:29.051Z,31.34
2022-09-06T15:00:38.574Z,31.24
2022-09-06T15:01:44.711Z,31.11
2022-09-06T15:02:52.692Z,30.99
2022-09-06T15:04:01.312Z,30.92
2022-09-06T15:05:09.437Z,30.91
2022-09-06T15:06:16.969Z,30.94
2022-09-06T15:07:25.285Z,30.98
2022-09-06T15:08:32.028Z,30.97
2022-09-06T15:09:38.467Z,30.98
2022-09-06T15:10:59.981Z,30.92
2022-09-06T15:12:07.501Z,30.87
2022-09-06T15:13:14.950Z,31.00
2022-09-06T15:14:26.324Z,31.04
2022-09-06T15:15:34.909Z,31.07
2022-09-06T15:16:41.438Z,31.25
2022-09-06T15:17:48.261Z,31.40
2022-09-06T15:18:56.333Z,31.59
2022-09-06T15:20:03.259Z,31.83
2022-09-06T15:21:17.130Z,32.04
2022-09-06T15:22:24.363Z,32.24
2022-09-06T15:23:31.900Z,32.46
2022-09-06T15:24:39.476Z,32.57
2022-09-06T15:25:53.173Z,32.77
2022-09-06T15:27:00.957Z,33.11
2022-09-06T15:28:08.038Z,33.43
2022-09-06T15:29:16.530Z,33.71
2022-09-06T15:30:24.410Z,33.92
2022-09-06T15:31:32.540Z,34.08
2022-09-06T15:32:39.134Z,34.17
2022-09-06T15:33:45.754Z,34.23
2022-09-06T15:35:05.582Z,34.22
2022-09-06T15:36:12.886Z,34.19
2022-09-06T15:37:22.835Z,34.32
2022-09-06T15:38:30.979Z,34.58
2022-09-06T15:39:53.399Z,34.81
2022-09-06T15:41:22.909Z,34.94
2022-09-06T15:42:30.531Z,34.99
2022-09-06T15:43:42.898Z,35.08
2022-09-06T15:44:50.214Z,35.18
2022-09-06T15:45:57.899Z,35.30
2022-09-06T15:47:06.382Z,35.30
2022-09-06T15:48:13.589Z,35.21
2022-09-06T15:49:26.929Z,35.20
2022-09-06T15:50:51.410Z,35.27
2022-09-06T15:52:02.019Z,35.40
2022-09-06T15:53:14.674Z,35.55
2022-09-06T15:54:43.593Z,35.77
2022-09-06T15:56:00.706Z,36.04
2022-09-06T15:57:09.418Z,36.22
2022-09-06T15:58:16.727Z,36.34
2022-09-06T15:59:25.694Z,36.35
2022-09-06T16:00:33.064Z,36.33
2022-09-06T16:01:42.078Z,36.46
2022-09-06T16:02:50.399Z,36.61
2022-09-06T16:04:08.618Z,36.86
2022-09-06T16:05:17.264Z,36.98
2022-09-06T16:06:28.203Z,36.92
2022-09-06T16:07:39.208Z,36.88
2022-09-06T16:08:45.981Z,36.96